Time;durP1;ratioP1;P1;durP2;ratioP2;P2;SDS_P1;SDS_P2;PMS_P1;PMS_P2;Temp;Humidity;BMP_temperature;BMP_pressure;BME280_temperature;BME280_humidity;BME280_pressure;Samples;Min_cycle;Max_cycle;Signal;HPM_P1;HPM_P2
2022/03/26 00:01:49;;;;;;;16.42;8.20;;;3.60;99.90;;;;;;5292648;28;20019;-76
2022/03/26 00:04:20;;;;;;;14.40;7.50;;;3.90;99.90;;;;;;5290830;28;20024;-76
2022/03/26 00:06:51;;;;;;;15.50;8.45;;;3.90;99.90;;;;;;5290841;28;20042;-76
2022/03/26 00:09:21;;;;;;;12.23;7.00;;;3.80;99.90;;;;;;5291206;28;20069;-76
2022/03/26 00:11:52;;;;;;;14.68;8.27;;;3.40;99.90;;;;;;5292028;28;20024;-76
2022/03/26 00:14:23;;;;;;;14.90;7.35;;;3.20;99.90;;;;;;5292027;28;20055;-76
2022/03/26 00:16:54;;;;;;;13.57;8.73;;;2.90;99.90;;;;;;5291782;28;20065;-76
2022/03/26 00:19:26;;;;;;;14.57;8.80;;;3.10;99.90;;;;;;5291842;28;20110;-76
2022/03/26 00:21:57;;;;;;;14.40;8.68;;;3.30;99.90;;;;;;5290413;28;20027;-76
2022/03/26 00:24:28;;;;;;;13.98;8.73;;;3.10;99.90;;;;;;5290457;28;20023;-76
2022/03/26 00:26:58;;;;;;;17.52;9.27;;;3.00;99.90;;;;;;5291393;28;20076;-76
2022/03/26 00:29:30;;;;;;;12.73;8.60;;;3.10;99.90;;;;;;5291547;28;20441;-76
2022/03/26 00:32:03;;;;;;;14.15;8.48;;;2.90;99.90;;;;;;5291558;28;20099;-76
2022/03/26 00:34:34;;;;;;;16.15;8.38;;;3.20;99.90;;;;;;5291611;28;20024;-76
2022/03/26 00:37:06;;;;;;;13.55;8.23;;;3.20;99.90;;;;;;5291713;28;20130;-76
2022/03/26 00:39:38;;;;;;;12.80;8.27;;;3.00;99.90;;;;;;5291383;28;20031;-76
2022/03/26 00:42:09;;;;;;;15.63;9.43;;;2.70;99.90;;;;;;5291281;28;20030;-76
2022/03/26 00:44:41;;;;;;;14.35;8.65;;;2.90;99.90;;;;;;5289981;28;20024;-76
2022/03/26 00:47:11;;;;;;;16.83;8.63;;;2.90;99.90;;;;;;5291258;28;20089;-76
2022/03/26 00:49:42;;;;;;;14.63;8.13;;;2.30;99.90;;;;;;5291223;28;20051;-75
2022/03/26 00:52:13;;;;;;;16.85;9.07;;;2.50;99.90;;;;;;5289853;28;20081;-76
2022/03/26 00:54:44;;;;;;;17.85;9.90;;;2.20;99.90;;;;;;5290718;28;20575;-76
2022/03/26 00:57:16;;;;;;;15.13;9.52;;;2.40;99.90;;;;;;5290872;28;20071;-76
2022/03/26 00:59:47;;;;;;;14.30;9.13;;;2.40;99.90;;;;;;5291036;28;20027;-76
2022/03/26 01:02:18;;;;;;;15.60;9.55;;;2.30;99.90;;;;;;5290613;28;20429;-75
2022/03/26 01:04:49;;;;;;;15.68;9.60;;;2.40;99.90;;;;;;5290904;28;20366;-76
2022/03/26 01:07:19;;;;;;;17.48;10.77;;;2.30;99.90;;;;;;5290921;28;20032;-76
2022/03/26 01:09:50;;;;;;;19.20;12.13;;;2.40;99.90;;;;;;5291137;28;20475;-76
2022/03/26 01:12:22;;;;;;;17.88;11.07;;;2.40;99.90;;;;;;5290833;28;20041;-76
2022/03/26 01:14:53;;;;;;;15.98;10.32;;;2.50;99.90;;;;;;5290736;28;20016;-76
2022/03/26 01:17:24;;;;;;;17.02;10.48;;;2.20;99.90;;;;;;5290653;28;20420;-76
2022/03/26 01:19:55;;;;;;;20.67;11.73;;;2.30;99.90;;;;;;5290410;28;20095;-76
2022/03/26 01:22:26;;;;;;;17.20;10.32;;;2.20;99.90;;;;;;5290499;28;20028;-76
2022/03/26 01:24:57;;;;;;;18.77;10.02;;;2.10;99.90;;;;;;5290402;28;20114;-76
2022/03/26 01:27:27;;;;;;;18.40;10.15;;;2.20;99.90;;;;;;5290422;28;20118;-76
2022/03/26 01:29:58;;;;;;;16.40;10.35;;;2.00;99.90;;;;;;5290866;28;20530;-77
2022/03/26 01:32:29;;;;;;;18.10;10.23;;;2.10;99.90;;;;;;5290487;28;20379;-76
2022/03/26 01:35:00;;;;;;;16.58;9.95;;;2.00;99.90;;;;;;5290724;28;20024;-76
2022/03/26 01:37:31;;;;;;;15.93;10.57;;;2.00;99.90;;;;;;5290681;28;20064;-76
2022/03/26 01:40:03;;;;;;;14.98;9.63;;;1.80;99.90;;;;;;5290638;28;20066;-76
2022/03/26 01:42:34;;;;;;;18.10;9.88;;;1.80;99.90;;;;;;5290307;28;20038;-77
2022/03/26 01:45:05;;;;;;;18.38;10.52;;;1.80;99.90;;;;;;5290277;28;20024;-76
2022/03/26 01:47:36;;;;;;;18.27;11.18;;;1.50;99.90;;;;;;5290225;28;20110;-76
2022/03/26 01:50:07;;;;;;;17.20;10.15;;;1.90;99.90;;;;;;5290286;28;20125;-76
2022/03/26 01:52:38;;;;;;;16.60;10.07;;;1.60;99.90;;;;;;5289028;28;20047;-75
2022/03/26 01:55:09;;;;;;;18.23;10.57;;;1.40;99.90;;;;;;5289977;28;20512;-76
2022/03/26 01:57:41;;;;;;;17.90;10.13;;;1.60;99.90;;;;;;5290302;28;20038;-75
2022/03/26 02:00:13;;;;;;;17.65;10.23;;;1.50;99.90;;;;;;5290544;28;20435;-76
2022/03/26 02:02:44;;;;;;;17.13;10.70;;;1.30;99.90;;;;;;5290401;28;20028;-76
2022/03/26 02:05:17;;;;;;;18.35;11.15;;;1.30;99.90;;;;;;5290086;28;20024;-76
2022/03/26 02:07:49;;;;;;;22.15;11.30;;;1.20;99.90;;;;;;5290101;28;20493;-76
2022/03/26 02:10:21;;;;;;;22.23;11.65;;;1.30;99.90;;;;;;5290044;28;20125;-76
2022/03/26 02:12:51;;;;;;;19.02;12.45;;;1.10;99.90;;;;;;5290594;28;20081;-76
2022/03/26 02:15:22;;;;;;;20.98;11.88;;;1.10;99.90;;;;;;5290072;28;20020;-76
2022/03/26 02:17:53;;;;;;;17.60;11.52;;;1.20;99.90;;;;;;5288668;28;20024;-76
2022/03/26 02:20:24;;;;;;;17.00;11.68;;;1.20;99.90;;;;;;5290108;28;20486;-75
2022/03/26 02:22:55;;;;;;;19.50;11.73;;;1.00;99.90;;;;;;5290042;28;20019;-76
2022/03/26 02:25:26;;;;;;;17.85;11.30;;;1.00;99.90;;;;;;5289794;28;20128;-75
2022/03/26 02:27:57;;;;;;;18.38;11.70;;;1.30;99.90;;;;;;5288658;28;20055;-75
2022/03/26 02:30:30;;;;;;;15.98;11.40;;;1.30;99.90;;;;;;5290142;28;20023;-76
2022/03/26 02:33:01;;;;;;;21.45;11.55;;;1.20;99.90;;;;;;5292388;28;20094;-76
2022/03/26 02:35:32;;;;;;;21.65;11.27;;;1.00;99.90;;;;;;5293918;28;20447;-76
2022/03/26 02:38:02;;;;;;;18.75;10.65;;;0.80;99.90;;;;;;5292658;28;20031;-76
2022/03/26 02:40:33;;;;;;;19.50;11.38;;;1.00;99.90;;;;;;5293858;28;20027;-75
2022/03/26 02:43:06;;;;;;;18.67;11.35;;;0.90;99.90;;;;;;5293837;28;20122;-76
2022/03/26 02:45:42;;;;;;;21.23;11.75;;;0.80;99.90;;;;;;5292614;28;20023;-76
2022/03/26 02:48:14;;;;;;;19.25;11.23;;;0.80;99.90;;;;;;5292292;28;20133;-75
2022/03/26 02:50:46;;;;;;;17.50;11.18;;;0.40;99.90;;;;;;5293881;27;20019;-76
2022/03/26 02:53:16;;;;;;;18.38;11.70;;;0.70;99.90;;;;;;5293527;28;20026;-75
2022/03/26 02:55:47;;;;;;;18.95;12.80;;;0.80;99.90;;;;;;5293570;27;20570;-75
2022/03/26 02:58:18;;;;;;;18.15;11.15;;;0.60;99.90;;;;;;5293498;28;20063;-75
2022/03/26 03:00:50;;;;;;;19.05;12.02;;;0.60;99.90;;;;;;5292119;28;20023;-75
2022/03/26 03:03:21;;;;;;;16.90;11.35;;;0.70;99.90;;;;;;5293418;28;20494;-76
2022/03/26 03:05:52;;;;;;;18.27;12.10;;;0.60;99.90;;;;;;5293323;28;20024;-76
2022/03/26 03:08:23;;;;;;;19.83;12.00;;;0.50;99.90;;;;;;5291987;28;20024;-76
2022/03/26 03:10:54;;;;;;;19.27;11.38;;;0.80;99.90;;;;;;5291956;28;20028;-75
2022/03/26 03:13:25;;;;;;;22.95;11.93;;;0.60;99.90;;;;;;5291935;28;20030;-75
2022/03/26 03:15:58;;;;;;;18.05;11.88;;;0.60;99.90;;;;;;5292827;28;20028;-76
2022/03/26 03:18:29;;;;;;;20.88;12.65;;;0.40;99.90;;;;;;5291624;28;20111;-75
2022/03/26 03:21:00;;;;;;;22.30;12.80;;;0.60;99.90;;;;;;5291779;28;20118;-75
2022/03/26 03:23:30;;;;;;;21.73;11.55;;;0.60;99.90;;;;;;5292980;28;20023;-76
2022/03/26 03:26:01;;;;;;;15.48;10.85;;;0.90;99.90;;;;;;5292907;28;20036;-76
2022/03/26 03:28:33;;;;;;;17.83;10.18;;;0.50;99.90;;;;;;5293107;28;20020;-75
2022/03/26 03:31:04;;;;;;;17.75;11.18;;;0.40;99.90;;;;;;5292891;28;20106;-77
2022/03/26 03:33:35;;;;;;;21.73;11.50;;;0.10;99.90;;;;;;5292837;28;20028;-76
2022/03/26 03:36:07;;;;;;;19.23;12.40;;;0.00;99.90;;;;;;5293065;28;20073;-75
2022/03/26 03:38:38;;;;;;;16.92;11.05;;;0.10;99.90;;;;;;5291408;28;20485;-75
2022/03/26 03:41:09;;;;;;;20.58;12.85;;;0.10;99.90;;;;;;5292703;27;20020;-77
2022/03/26 03:43:40;;;;;;;19.10;12.38;;;0.20;99.90;;;;;;5291194;28;20478;-76
2022/03/26 03:46:11;;;;;;;19.88;12.90;;;0.00;99.90;;;;;;5292477;28;20039;-76
2022/03/26 03:48:41;;;;;;;20.05;12.65;;;0.20;99.90;;;;;;5292371;28;20028;-77
2022/03/26 03:51:12;;;;;;;19.52;12.75;;;0.30;99.90;;;;;;5292788;28;20058;-76
2022/03/26 03:53:43;;;;;;;20.55;12.75;;;0.20;99.90;;;;;;5291105;28;20028;-78
2022/03/26 03:56:14;;;;;;;22.80;13.70;;;0.20;99.90;;;;;;5292027;28;20529;-76
2022/03/26 03:58:45;;;;;;;20.38;12.60;;;0.20;99.90;;;;;;5292529;28;20031;-76
2022/03/26 04:01:17;;;;;;;20.95;13.40;;;0.20;99.90;;;;;;5292559;28;20020;-76
2022/03/26 04:03:48;;;;;;;22.52;13.00;;;0.20;99.90;;;;;;5292162;28;20028;-78
2022/03/26 04:06:19;;;;;;;22.00;12.68;;;0.30;99.90;;;;;;5292012;28;20058;-77
2022/03/26 04:08:49;;;;;;;16.73;11.95;;;0.20;99.90;;;;;;5292039;28;20053;-77
2022/03/26 04:11:20;;;;;;;21.65;12.85;;;0.20;99.90;;;;;;5291990;27;20119;-78
2022/03/26 04:13:53;;;;;;;19.80;12.40;;;0.30;99.90;;;;;;5290689;28;20027;-77
2022/03/26 04:16:24;;;;;;;20.80;13.75;;;0.20;99.90;;;;;;5291957;28;20024;-78
2022/03/26 04:18:54;;;;;;;23.02;14.20;;;0.30;99.90;;;;;;5291798;28;20020;-78
2022/03/26 04:21:26;;;;;;;23.10;14.07;;;0.30;99.90;;;;;;5291981;28;20470;-78
2022/03/26 04:23:56;;;;;;;22.98;13.50;;;0.60;99.90;;;;;;5292075;28;20026;-78
2022/03/26 04:26:27;;;;;;;21.08;13.82;;;0.40;99.90;;;;;;5291489;28;20126;-77
2022/03/26 04:28:59;;;;;;;20.48;13.05;;;0.50;99.90;;;;;;5291615;28;20026;-78
2022/03/26 04:31:30;;;;;;;22.55;11.38;;;0.60;99.90;;;;;;5290275;28;20047;-78
2022/03/26 04:34:01;;;;;;;22.80;13.18;;;0.60;99.90;;;;;;5291510;28;20127;-78
2022/03/26 04:36:32;;;;;;;20.35;11.63;;;0.60;99.90;;;;;;5291653;28;20495;-78
2022/03/26 04:39:03;;;;;;;18.98;12.15;;;0.60;99.90;;;;;;5291517;28;20045;-79
2022/03/26 04:41:34;;;;;;;21.55;12.90;;;0.70;99.90;;;;;;5291378;28;20495;-78
2022/03/26 04:44:05;;;;;;;22.33;13.52;;;0.80;99.90;;;;;;5291403;28;20352;-77
2022/03/26 04:46:38;;;;;;;23.30;13.02;;;1.00;99.90;;;;;;5291243;28;20517;-79
2022/03/26 04:49:08;;;;;;;22.88;12.68;;;1.00;99.90;;;;;;5289835;28;20103;-78
2022/03/26 04:51:39;;;;;;;20.05;12.30;;;0.90;99.90;;;;;;5291166;28;20127;-79
2022/03/26 04:54:10;;;;;;;21.10;13.90;;;1.00;99.90;;;;;;5291003;28;20599;-78
2022/03/26 04:56:41;;;;;;;20.50;12.75;;;1.10;99.90;;;;;;5289182;28;20056;-78
2022/03/26 04:59:12;;;;;;;24.55;12.82;;;0.90;99.90;;;;;;5291090;28;20027;-78
2022/03/26 05:01:44;;;;;;;20.75;12.00;;;1.20;99.90;;;;;;5289720;28;20058;-78
2022/03/26 05:04:17;;;;;;;19.60;12.52;;;1.20;99.90;;;;;;5290928;28;20086;-78
2022/03/26 05:06:48;;;;;;;27.02;17.92;;;1.40;99.90;;;;;;5290988;28;20040;-79
2022/03/26 05:09:18;;;;;;;37.70;26.67;;;1.40;99.90;;;;;;5290862;28;20012;-77
2022/03/26 05:11:49;;;;;;;30.00;19.77;;;1.40;99.90;;;;;;5290853;28;20092;-77
2022/03/26 05:14:21;;;;;;;23.25;15.52;;;1.70;99.90;;;;;;5290742;28;20444;-77
2022/03/26 05:16:52;;;;;;;18.30;10.95;;;1.80;99.90;;;;;;5290819;28;20027;-79
2022/03/26 05:19:23;;;;;;;23.83;13.38;;;1.70;99.90;;;;;;5290760;28;20023;-78
2022/03/26 05:21:53;;;;;;;18.67;12.85;;;2.20;99.90;;;;;;5290749;28;20096;-78
2022/03/26 05:24:24;;;;;;;17.35;10.60;;;2.20;99.90;;;;;;5272520;28;20059;-78
2022/03/26 05:26:55;;;;;;;19.58;11.68;;;2.30;99.90;;;;;;5290456;28;20046;-77
2022/03/26 05:29:27;;;;;;;19.58;12.00;;;2.70;99.90;;;;;;5289213;28;20394;-78
2022/03/26 05:31:59;;;;;;;20.17;11.48;;;2.90;99.90;;;;;;5290460;28;20024;-78
2022/03/26 05:34:30;;;;;;;21.27;11.55;;;3.00;99.90;;;;;;5290374;28;20027;-79
2022/03/26 05:37:01;;;;;;;19.05;11.82;;;3.20;99.90;;;;;;5289211;28;20366;-78
2022/03/26 05:39:32;;;;;;;18.27;11.82;;;3.10;99.90;;;;;;5290355;28;20019;-78
2022/03/26 05:42:03;;;;;;;17.85;11.77;;;3.40;99.90;;;;;;5290634;28;20106;-78
2022/03/26 05:44:34;;;;;;;21.17;10.48;;;3.60;99.90;;;;;;5290108;28;20684;-78
2022/03/26 05:47:05;;;;;;;17.45;10.50;;;4.10;99.90;;;;;;5290083;28;20038;-78
2022/03/26 05:49:36;;;;;;;18.80;10.07;;;3.80;99.90;;;;;;5290210;28;20027;-78
2022/03/26 05:52:07;;;;;;;17.45;10.13;;;3.80;99.90;;;;;;5288963;28;20076;-78
2022/03/26 05:54:38;;;;;;;20.35;10.55;;;4.20;99.90;;;;;;5290272;28;20472;-78
2022/03/26 05:57:09;;;;;;;17.48;10.50;;;4.30;99.90;;;;;;5289967;28;20131;-77
2022/03/26 05:59:40;;;;;;;15.27;10.05;;;4.30;99.90;;;;;;5290246;28;20026;-77
2022/03/26 06:02:13;;;;;;;16.63;11.02;;;4.80;99.90;;;;;;5288984;28;20027;-77
2022/03/26 06:04:44;;;;;;;19.90;11.38;;;4.10;99.90;;;;;;5290388;28;20123;-77
2022/03/26 06:07:15;;;;;;;17.75;10.70;;;4.30;99.90;;;;;;5291386;28;20035;-76
2022/03/26 06:09:46;;;;;;;19.02;11.10;;;4.50;99.90;;;;;;5294478;28;20012;-78
2022/03/26 06:12:17;;;;;;;29.38;16.20;;;4.80;99.90;;;;;;5294688;28;20875;-78
2022/03/26 06:14:48;;;;;;;21.42;13.48;;;4.80;99.90;;;;;;5294383;28;20023;-77
2022/03/26 06:17:19;;;;;;;15.38;9.65;;;5.60;99.90;;;;;;5292738;28;20027;-77
2022/03/26 06:19:50;;;;;;;13.65;9.43;;;5.60;99.90;;;;;;5294069;28;20414;-76
2022/03/26 06:22:21;;;;;;;19.65;11.20;;;6.10;99.90;;;;;;5294183;28;20030;-76
2022/03/26 06:24:53;;;;;;;21.17;10.55;;;6.60;99.90;;;;;;5294103;28;20491;-79
2022/03/26 06:27:24;;;;;;;18.30;11.77;;;6.40;99.90;;;;;;5293485;28;20405;-77
2022/03/26 06:29:55;;;;;;;18.45;12.23;;;6.70;99.90;;;;;;5293818;28;20572;-76
2022/03/26 06:32:26;;;;;;;24.88;12.35;;;7.30;99.90;;;;;;5293800;28;20032;-76
2022/03/26 06:34:56;;;;;;;18.63;12.20;;;7.80;99.90;;;;;;5293880;28;20019;-77
2022/03/26 06:37:27;;;;;;;19.25;11.95;;;8.10;99.90;;;;;;5292952;28;20028;-77
2022/03/26 06:39:58;;;;;;;18.33;11.75;;;8.00;99.90;;;;;;5292760;28;20019;-76
2022/03/26 06:42:29;;;;;;;16.92;11.00;;;7.80;99.90;;;;;;5293765;28;20019;-76
2022/03/26 06:45:00;;;;;;;14.88;10.13;;;7.40;99.90;;;;;;5293592;27;20103;-77
2022/03/26 06:47:31;;;;;;;24.80;12.10;;;7.20;99.90;;;;;;5293552;28;20148;-78
2022/03/26 06:50:02;;;;;;;17.55;11.40;;;7.30;99.90;;;;;;5293782;28;20526;-76
2022/03/26 06:52:33;;;;;;;17.55;11.68;;;7.50;99.90;;;;;;5282002;28;20028;-77
2022/03/26 06:55:05;;;;;;;18.00;11.80;;;7.70;99.90;;;;;;5286690;28;20042;-77
2022/03/26 06:57:37;;;;;;;28.00;11.80;;;8.10;99.90;;;;;;5290250;28;20024;-80
2022/03/26 07:00:13;;;;;;;19.02;10.93;;;8.10;99.90;;;;;;5290617;28;20077;-77
2022/03/26 07:02:44;;;;;;;18.95;11.35;;;8.10;99.90;;;;;;5289006;28;20040;-76
2022/03/26 07:05:15;;;;;;;17.58;12.00;;;8.20;99.90;;;;;;5290015;28;20031;-77
2022/03/26 07:07:46;;;;;;;21.80;13.00;;;8.30;99.90;;;;;;5290005;28;20494;-76
2022/03/26 07:10:17;;;;;;;20.65;12.45;;;8.20;99.90;;;;;;5290182;28;20249;-77
2022/03/26 07:12:48;;;;;;;16.80;10.75;;;8.50;99.90;;;;;;5288520;28;20024;-77
2022/03/26 07:15:19;;;;;;;20.45;11.73;;;8.40;99.90;;;;;;5290018;28;20036;-82
2022/03/26 07:17:50;;;;;;;21.27;12.80;;;8.40;99.90;;;;;;5288775;28;20027;-76
2022/03/26 07:20:21;;;;;;;18.90;11.57;;;8.40;99.90;;;;;;5289403;28;20031;-76
2022/03/26 07:22:56;;;;;;;24.33;13.05;;;8.50;99.90;;;;;;5289436;28;20102;-77
2022/03/26 07:25:27;;;;;;;26.00;14.05;;;8.40;99.90;;;;;;5289406;28;20122;-78
2022/03/26 07:27:58;;;;;;;22.67;14.10;;;8.70;99.90;;;;;;5289293;28;20374;-78
2022/03/26 07:30:29;;;;;;;18.20;11.77;;;9.30;99.90;;;;;;5288946;28;20024;-78
2022/03/26 07:33:00;;;;;;;16.73;10.50;;;9.40;99.90;;;;;;5289249;28;20024;-79
2022/03/26 07:35:31;;;;;;;17.48;11.77;;;9.10;99.90;;;;;;5287704;28;20054;-79
2022/03/26 07:38:03;;;;;;;15.07;11.20;;;9.20;99.90;;;;;;5289837;28;20023;-79
2022/03/26 07:40:33;;;;;;;18.70;10.63;;;9.50;99.90;;;;;;5291619;28;20031;-80
2022/03/26 07:43:05;;;;;;;16.02;10.85;;;9.70;99.90;;;;;;5291983;28;20027;-79
2022/03/26 07:45:36;;;;;;;17.38;11.52;;;10.00;99.90;;;;;;5292065;28;20434;-79
2022/03/26 07:48:07;;;;;;;16.42;11.65;;;10.00;99.90;;;;;;5290691;28;20024;-78
2022/03/26 07:50:38;;;;;;;15.98;11.18;;;10.10;99.90;;;;;;5291998;28;20531;-78
2022/03/26 07:53:09;;;;;;;16.08;11.00;;;9.90;99.90;;;;;;5291920;28;20024;-78
2022/03/26 07:55:40;;;;;;;18.55;10.38;;;10.00;99.90;;;;;;5291571;28;20058;-79
2022/03/26 07:58:12;;;;;;;14.95;10.43;;;9.90;99.90;;;;;;5292032;28;20024;-79
2022/03/26 08:00:43;;;;;;;19.15;11.70;;;10.10;99.90;;;;;;5290585;28;20118;-77
2022/03/26 08:03:13;;;;;;;18.55;12.05;;;10.00;99.90;;;;;;5291652;28;20103;-77
2022/03/26 08:05:45;;;;;;;22.75;11.90;;;10.40;99.90;;;;;;5290638;28;20028;-78
2022/03/26 08:08:15;;;;;;;17.35;12.27;;;10.90;99.90;;;;;;5291690;28;20046;-80
2022/03/26 08:10:50;;;;;;;18.13;10.95;;;10.60;99.90;;;;;;5291481;28;20019;-78
2022/03/26 08:13:21;;;;;;;17.60;11.85;;;10.40;99.90;;;;;;5291466;27;20059;-78
2022/03/26 08:15:52;;;;;;;17.45;12.27;;;10.60;99.90;;;;;;5290227;28;20104;-81
2022/03/26 08:18:23;;;;;;;18.60;12.02;;;10.90;99.90;;;;;;5290000;28;20028;-78
2022/03/26 08:20:53;;;;;;;17.25;10.50;;;10.90;99.90;;;;;;5291326;28;20018;-78
2022/03/26 08:23:30;;;;;;;16.45;11.02;;;10.60;99.90;;;;;;5290013;28;20390;-78
2022/03/26 08:26:19;;;;;;;17.67;11.38;;;10.80;99.90;;;;;;5291185;28;20517;-77
2022/03/26 08:28:51;;;;;;;23.77;13.05;;;11.30;99.90;;;;;;5291172;28;20416;-77
2022/03/26 08:31:24;;;;;;;15.73;10.77;;;11.20;99.90;;;;;;5289254;28;20031;-78
2022/03/26 08:33:55;;;;;;;18.58;10.82;;;11.00;99.90;;;;;;5291195;28;20054;-78
2022/03/26 08:36:26;;;;;;;15.15;10.63;;;11.10;99.90;;;;;;5291086;28;20106;-82
2022/03/26 08:38:58;;;;;;;21.98;11.70;;;11.20;99.90;;;;;;5291206;28;20024;-81
2022/03/26 08:41:29;;;;;;;16.27;10.80;;;11.50;99.90;;;;;;5291007;28;20402;-79
2022/03/26 08:43:59;;;;;;;16.38;10.68;;;11.20;99.90;;;;;;5290917;28;20015;-79
2022/03/26 08:46:30;;;;;;;16.40;10.15;;;11.90;99.90;;;;;;5289464;28;20036;-79
2022/03/26 08:49:01;;;;;;;17.13;11.50;;;11.80;99.90;;;;;;5290786;28;20379;-80
2022/03/26 08:51:32;;;;;;;15.90;10.10;;;11.50;99.90;;;;;;5289552;28;20027;-80
2022/03/26 08:54:03;;;;;;;20.75;10.80;;;11.50;99.90;;;;;;5290795;28;20063;-81
2022/03/26 08:56:34;;;;;;;14.93;10.13;;;12.00;99.90;;;;;;5290233;28;20051;-80
2022/03/26 08:59:06;;;;;;;16.67;10.40;;;11.70;99.90;;;;;;5290769;28;20020;-82
2022/03/26 09:01:38;;;;;;;15.18;10.18;;;11.80;99.90;;;;;;5290720;28;20027;-80
2022/03/26 09:04:11;;;;;;;17.77;10.35;;;11.90;99.90;;;;;;5290566;28;20031;-80
2022/03/26 09:06:42;;;;;;;17.60;9.68;;;12.80;99.90;;;;;;5289224;28;20119;-79
2022/03/26 09:09:15;;;;;;;14.57;9.40;;;12.10;99.90;;;;;;5289150;28;20119;-79
2022/03/26 09:11:46;;;;;;;13.30;9.13;;;13.10;99.90;;;;;;5290545;28;20015;-79
2022/03/26 09:14:17;;;;;;;15.00;9.30;;;13.00;99.90;;;;;;5289876;28;20020;-81
2022/03/26 09:16:48;;;;;;;14.30;9.73;;;12.80;99.90;;;;;;5290770;28;20024;-78
2022/03/26 09:19:19;;;;;;;13.05;9.73;;;12.60;99.90;;;;;;5290732;28;20053;-78
2022/03/26 09:21:50;;;;;;;19.75;10.10;;;12.60;99.90;;;;;;5290685;28;20020;-78
2022/03/26 09:24:23;;;;;;;17.13;11.00;;;12.60;99.90;;;;;;5290623;28;20026;-82
2022/03/26 09:26:54;;;;;;;16.33;9.68;;;13.60;99.90;;;;;;5290451;28;20044;-78
2022/03/26 09:29:25;;;;;;;21.55;11.13;;;13.20;99.90;;;;;;5290538;28;20035;-78
2022/03/26 09:31:56;;;;;;;15.93;10.57;;;13.20;99.90;;;;;;5289329;28;20019;-78
2022/03/26 09:34:26;;;;;;;17.52;10.57;;;13.40;99.90;;;;;;5290615;28;20047;-78
2022/03/26 09:36:57;;;;;;;23.40;11.13;;;13.40;99.90;;;;;;5290509;28;20020;-77
2022/03/26 09:39:28;;;;;;;14.02;10.30;;;13.20;99.90;;;;;;5290526;28;20032;-77
2022/03/26 09:41:59;;;;;;;13.35;9.77;;;12.80;99.90;;;;;;5290207;28;20024;-77
2022/03/26 09:44:32;;;;;;;16.75;10.02;;;13.20;99.90;;;;;;5290153;28;20080;-78
2022/03/26 09:47:13;;;;;;;16.48;9.23;;;13.20;99.90;;;;;;5280667;28;20681;-81
2022/03/26 09:49:44;;;;;;;14.40;9.30;;;13.70;99.90;;;;;;5288802;28;20031;-80
2022/03/26 09:52:16;;;;;;;17.13;9.80;;;13.50;99.90;;;;;;5288330;28;20084;-80
2022/03/26 09:54:47;;;;;;;17.95;10.05;;;14.00;99.90;;;;;;5289671;28;20020;-79
2022/03/26 09:57:18;;;;;;;13.93;9.02;;;13.90;99.90;;;;;;5288323;28;20051;-78
2022/03/26 09:59:49;;;;;;;19.80;11.15;;;13.50;99.90;;;;;;5289823;28;20027;-78
2022/03/26 10:02:26;;;;;;;17.17;10.93;;;14.20;99.90;;;;;;5289706;28;20030;-79
2022/03/26 10:04:56;;;;;;;14.68;9.32;;;14.00;99.90;;;;;;5289744;28;20544;-78
2022/03/26 10:07:32;;;;;;;28.50;9.88;;;14.00;99.90;;;;;;5289072;28;20027;-78
2022/03/26 10:10:04;;;;;;;16.02;7.80;;;13.50;99.90;;;;;;5289665;28;20028;-81
2022/03/26 10:12:34;;;;;;;22.23;8.05;;;14.10;99.90;;;;;;5288269;28;20131;-83
2022/03/26 10:15:08;;;;;;;16.65;7.88;;;14.90;99.90;;;;;;5289312;28;20094;-80
2022/03/26 10:17:39;;;;;;;14.30;7.18;;;14.80;99.90;;;;;;5289588;28;20019;-80
2022/03/26 10:20:14;;;;;;;15.43;7.50;;;14.20;94.40;;;;;;5289579;28;20024;-82
2022/03/26 10:22:49;;;;;;;13.57;7.35;;;14.20;92.90;;;;;;5289533;28;20028;-82
2022/03/26 10:25:22;;;;;;;14.40;6.95;;;14.60;94.60;;;;;;5289405;28;20036;-80
2022/03/26 10:27:56;;;;;;;19.33;6.97;;;14.10;94.00;;;;;;5289377;28;20020;-78
2022/03/26 10:33:23;;;;;;;11.88;6.88;;;14.50;93.30;;;;;;5289602;28;20042;-80
2022/03/26 10:35:59;;;;;;;15.23;6.60;;;15.20;82.10;;;;;;5289253;28;20051;-81
2022/03/26 10:38:38;;;;;;;18.52;7.00;;;15.50;93.70;;;;;;5289451;28;20023;-79
2022/03/26 10:41:09;;;;;;;21.85;7.15;;;15.30;85.00;;;;;;5289469;28;20016;-79
2022/03/26 10:43:41;;;;;;;11.65;6.35;;;14.90;79.60;;;;;;5289197;28;20043;-80
2022/03/26 10:46:12;;;;;;;15.82;6.18;;;14.80;89.60;;;;;;5289256;28;20034;-82
2022/03/26 10:48:43;;;;;;;14.25;4.60;;;14.80;79.50;;;;;;5289142;28;20015;-82
2022/03/26 10:51:17;;;;;;;13.63;5.97;;;15.30;75.10;;;;;;5288982;28;20420;-82
2022/03/26 10:53:49;;;;;;;16.38;6.32;;;14.60;75.30;;;;;;5289863;28;20115;-82
2022/03/26 10:56:20;;;;;;;21.80;7.20;;;14.50;78.70;;;;;;5292847;28;20047;-79
2022/03/26 10:58:51;;;;;;;16.00;5.68;;;15.00;79.20;;;;;;5292998;27;20034;-82
2022/03/26 11:01:22;;;;;;;14.73;4.40;;;15.30;75.90;;;;;;5293005;28;20072;-82
2022/03/26 11:03:53;;;;;;;15.25;6.00;;;15.00;70.50;;;;;;5291734;28;20016;-83
2022/03/26 11:06:28;;;;;;;12.43;4.72;;;15.60;75.10;;;;;;5292837;28;20045;-82
2022/03/26 11:09:02;;;;;;;8.63;4.75;;;15.60;77.40;;;;;;5292833;28;20020;-82
2022/03/26 11:11:33;;;;;;;22.52;5.85;;;15.20;72.00;;;;;;5291515;28;20554;-83
2022/03/26 11:14:31;;;;;;;15.23;5.60;;;16.00;76.80;;;;;;5291490;28;20106;-82
2022/03/26 11:17:25;;;;;;;15.15;4.93;;;15.30;67.70;;;;;;5291377;28;20024;-82
2022/03/26 11:20:05;;;;;;;12.63;5.28;;;15.10;69.90;;;;;;5271696;28;20020;-80
2022/03/26 11:22:54;;;;;;;;;;;15.80;73.10;;;;;;5290156;28;20080;-83
2022/03/26 11:25:46;;;;;;;11.35;5.45;;;15.90;67.40;;;;;;5292474;28;19919;-79
2022/03/26 11:28:41;;;;;;;18.90;3.97;;;15.60;67.40;;;;;;5292493;28;20383;-83
2022/03/26 11:31:21;;;;;;;11.95;3.88;;;15.60;65.90;;;;;;5292244;28;20059;-83
2022/03/26 11:34:04;;;;;;;17.50;3.73;;;15.80;64.50;;;;;;5292352;28;20467;-81
2022/03/26 11:36:35;;;;;;;13.70;4.47;;;15.20;65.10;;;;;;5291106;28;20551;-83
2022/03/26 11:39:09;;;;;;;13.73;3.53;;;16.50;65.30;;;;;;5292220;27;20020;-82
2022/03/26 11:41:41;;;;;;;12.27;4.10;;;16.40;61.10;;;;;;5290808;28;20039;-83
2022/03/26 11:44:16;;;;;;;11.95;4.78;;;16.30;61.80;;;;;;5290956;28;20020;-83
2022/03/26 11:52:33;;;;;;;16.25;4.80;;;13.90;58.50;;;;;;5291637;28;20034;-83
2022/03/26 11:55:16;;;;;;;10.15;4.32;;;15.60;64.50;;;;;;5290262;28;20130;-83
2022/03/26 11:57:47;;;;;;;16.33;4.57;;;15.60;62.60;;;;;;5290594;28;20114;-83
2022/03/26 12:00:21;;;;;;;18.58;5.07;;;15.60;61.10;;;;;;5291648;28;20111;-82
2022/03/26 12:02:53;;;;;;;28.02;5.25;;;15.30;61.70;;;;;;5291534;28;20041;-83
2022/03/26 12:08:18;;;;;;;15.43;4.90;;;16.10;65.70;;;;;;5270928;28;20507;-83
2022/03/26 12:10:50;;;;;;;18.58;4.68;;;15.80;61.20;;;;;;5277104;28;20028;-82
2022/03/26 12:13:31;;;;;;;16.90;4.15;;;15.90;60.90;;;;;;5291534;28;20020;-83
2022/03/26 12:16:08;;;;;;;14.65;4.50;;;15.00;59.00;;;;;;5283157;28;20107;-83
2022/03/26 12:18:46;;;;;;;18.83;4.55;;;16.30;65.40;;;;;;5286447;28;20055;-84
2022/03/26 12:21:24;;;;;;;16.50;4.57;;;16.00;60.90;;;;;;5291311;28;20463;-84
2022/03/26 12:23:55;;;;;;;20.08;4.10;;;16.80;60.00;;;;;;5290003;28;20019;-84
2022/03/26 12:26:26;;;;;;;14.00;4.28;;;16.40;59.90;;;;;;5291181;28;20050;-84
2022/03/26 12:28:58;;;;;;;18.23;4.38;;;16.80;61.30;;;;;;5289891;28;20483;-83
2022/03/26 12:31:31;;;;;;;14.85;4.38;;;15.90;59.80;;;;;;5281038;28;20109;-83
2022/03/26 12:34:02;;;;;;;15.98;4.30;;;15.80;60.60;;;;;;5283136;28;20043;-82
2022/03/26 12:36:35;;;;;;;17.90;4.68;;;16.20;61.40;;;;;;5291165;28;20077;-83
2022/03/26 12:39:06;;;;;;;20.30;4.70;;;15.70;59.60;;;;;;5291356;28;20016;-82
2022/03/26 12:41:37;;;;;;;28.48;5.15;;;16.40;63.00;;;;;;5289034;28;20031;-82
2022/03/26 12:44:16;;;;;;;16.67;3.70;;;16.20;61.40;;;;;;5291021;28;20024;-83
2022/03/26 12:46:49;;;;;;;11.82;3.60;;;15.60;58.90;;;;;;5290804;28;20118;-81
2022/03/26 12:49:21;;;;;;;20.08;4.10;;;15.80;60.00;;;;;;5312148;27;20483;-87
2022/03/26 12:51:53;;;;;;;24.73;6.25;;;15.60;57.70;;;;;;5302423;27;20035;-81
2022/03/26 12:54:28;;;;;;;25.45;5.95;;;16.00;58.80;;;;;;5290787;28;20117;-84
2022/03/26 12:57:02;;;;;;;15.52;5.47;;;16.20;57.90;;;;;;5289069;28;20063;-84
2022/03/26 12:59:33;;;;;;;14.27;3.90;;;16.10;58.10;;;;;;5290589;28;20023;-82
2022/03/26 13:02:09;;;;;;;17.85;4.28;;;16.40;58.10;;;;;;5290626;28;20106;-82
2022/03/26 13:04:40;;;;;;;21.30;3.33;;;16.20;55.90;;;;;;5290622;28;20020;-80
2022/03/26 13:07:11;;;;;;;22.67;4.30;;;15.50;57.00;;;;;;5290308;28;20857;-85
2022/03/26 13:09:41;;;;;;;15.35;4.32;;;14.90;57.20;;;;;;5290481;28;20035;-83
2022/03/26 13:12:25;;;;;;;13.98;3.75;;;15.00;59.20;;;;;;5290441;28;20034;-83